»·PEaware :: N569FL KMRY-KFOT

N569FL :: KMRY-KFOT

FLIGHT INFORMATION

Flight Status: Arrived
Operator: Privately registered:
United States
More flights under this callsign
Pilot: Nathan P. (3026)
Aircraft: PIPER PA-28 CHEROKEE ARCHER
(P28A)
More flights by this aircraft type
Origin: KMRY Monterey Peninsula
United States
Destination: KFOT Rohnerville
United States
More flights between these airports :: More routes between these airports
Route: +
File this flight plan on PilotEdge
Remarks:
Altitude:
(Current/Filed)
10,500ft
Speed:
(Current/Filed)
0kts
Departed: 24-Oct-17 04:23 PM
Arrived: 24-Oct-17 06:32 PM
Distance/Time
Traveled:
261nm/2:09
Distance/Time
To Go:
Arrived

Flight Plot

Page will automatically refresh every two minutes.

Flight plan parsing failed; only flown route is shown


Map Options




Map Legend


Flown Route
Filed Route
Departure Airport
Arrival Airport
Navaid (VOR, NDB)
Fix

Horizontal Profiles

Position Reports

Time Latitude Longitude Heading Altitude Ground
Speed
24-Oct-17 16:27 37.010158 -122.370161 322 10496ft 111kts
24-Oct-17 16:28 37.035739 -122.392707 324 10496ft 112kts
24-Oct-17 16:29 37.061087 -122.415576 323 10495ft 112kts
24-Oct-17 16:30 37.086570 -122.438230 324 10496ft 112kts
24-Oct-17 16:31 37.113710 -122.457683 339 10495ft 112kts
24-Oct-17 16:32 37.144024 -122.467544 346 10496ft 112kts
24-Oct-17 16:33 37.174189 -122.477880 342 10496ft 112kts
24-Oct-17 16:34 37.203829 -122.490628 339 10496ft 112kts
24-Oct-17 16:35 37.233290 -122.503793 339 10488ft 113kts
24-Oct-17 16:36 37.262926 -122.516831 341 10484ft 112kts
24-Oct-17 16:37 37.292552 -122.529173 341 10483ft 112kts
24-Oct-17 16:38 37.322203 -122.541643 341 10484ft 112kts
24-Oct-17 16:39 37.351835 -122.554399 338 10488ft 111kts
24-Oct-17 16:40 37.381228 -122.566985 340 10484ft 111kts
24-Oct-17 16:41 37.410608 -122.579349 340 10483ft 111kts
24-Oct-17 16:42 37.439954 -122.592045 340 10483ft 111kts
24-Oct-17 16:43 37.469259 -122.604566 341 10482ft 111kts
24-Oct-17 16:44 37.498626 -122.616959 340 10482ft 111kts
24-Oct-17 16:45 37.527878 -122.629987 340 10484ft 111kts
24-Oct-17 16:46 37.557152 -122.642364 341 10486ft 111kts
24-Oct-17 16:47 37.586522 -122.654858 339 10488ft 111kts
24-Oct-17 16:48 37.615802 -122.667486 340 10490ft 111kts
24-Oct-17 16:49 37.645112 -122.680015 339 10489ft 111kts
24-Oct-17 16:50 37.674511 -122.692589 340 10491ft 111kts
24-Oct-17 16:51 37.703858 -122.705049 339 10492ft 111kts
24-Oct-17 16:52 37.733086 -122.717868 340 10495ft 111kts
24-Oct-17 16:53 37.762504 -122.730379 340 10498ft 111kts
24-Oct-17 16:54 37.791748 -122.743120 340 10502ft 111kts
24-Oct-17 16:55 37.820973 -122.755780 340 10505ft 111kts
24-Oct-17 16:56 37.850351 -122.768337 340 10508ft 111kts
24-Oct-17 16:57 37.879559 -122.781142 340 10511ft 111kts
24-Oct-17 16:58 37.903897 -122.791710 340 10514ft 111kts
24-Oct-17 16:59 37.933100 -122.804576 341 10515ft 111kts
24-Oct-17 17:00 37.962490 -122.816721 339 10517ft 111kts
24-Oct-17 17:01 37.996574 -122.831976 340 10521ft 111kts
24-Oct-17 17:02 38.021070 -122.842058 340 10525ft 111kts
24-Oct-17 17:03 38.050233 -122.854844 337 10525ft 111kts
24-Oct-17 17:04 38.079525 -122.867874 340 10525ft 111kts
24-Oct-17 17:05 38.109912 -122.875899 351 10526ft 112kts
24-Oct-17 17:06 38.140923 -122.879790 353 10527ft 112kts
24-Oct-17 17:07 38.171957 -122.884178 350 10532ft 111kts
24-Oct-17 17:08 38.202705 -122.890250 349 10532ft 112kts
24-Oct-17 17:09 38.233552 -122.896120 350 10524ft 112kts
24-Oct-17 17:10 38.264522 -122.901916 350 10523ft 112kts
24-Oct-17 17:11 38.295385 -122.907494 350 10523ft 112kts
24-Oct-17 17:12 38.325382 -122.912975 350 10521ft 112kts
24-Oct-17 17:13 38.355665 -122.918668 350 10518ft 112kts
24-Oct-17 17:14 38.385966 -122.924206 350 10518ft 112kts
24-Oct-17 17:15 38.416866 -122.930080 349 10517ft 111kts
24-Oct-17 17:16 38.447712 -122.935647 350 10515ft 112kts
24-Oct-17 17:17 38.477459 -122.941167 350 10511ft 112kts
24-Oct-17 17:18 38.508535 -122.946927 350 10506ft 112kts
24-Oct-17 17:19 38.539422 -122.952717 350 10504ft 112kts
24-Oct-17 17:20 38.570303 -122.958413 350 10504ft 112kts
24-Oct-17 17:21 38.601098 -122.964175 350 10505ft 112kts
24-Oct-17 17:22 38.631878 -122.969892 350 10507ft 111kts
24-Oct-17 17:23 38.662735 -122.975668 350 10508ft 111kts
24-Oct-17 17:24 38.693497 -122.981475 350 10511ft 111kts
24-Oct-17 17:25 38.723133 -122.991957 328 10512ft 110kts
24-Oct-17 17:26 38.747067 -123.016507 316 10516ft 110kts
24-Oct-17 17:27 38.771135 -123.040803 323 10520ft 110kts
24-Oct-17 17:28 38.796972 -123.062472 325 10523ft 110kts
24-Oct-17 17:29 38.823155 -123.083208 326 10526ft 111kts
24-Oct-17 17:30 38.849187 -123.104411 325 10530ft 111kts
24-Oct-17 17:31 38.875077 -123.126220 325 10534ft 111kts
24-Oct-17 17:32 38.901051 -123.147690 325 10536ft 111kts
24-Oct-17 17:33 38.927012 -123.169378 325 10538ft 111kts
24-Oct-17 17:34 38.953023 -123.190826 325 10541ft 111kts
24-Oct-17 17:35 38.978947 -123.212442 325 10542ft 111kts
24-Oct-17 17:36 39.004966 -123.234099 325 10543ft 111kts
24-Oct-17 17:37 39.030904 -123.255675 325 10543ft 111kts
24-Oct-17 17:38 39.056839 -123.277237 326 10544ft 111kts
24-Oct-17 17:39 39.084795 -123.294682 335 10545ft 111kts
24-Oct-17 17:40 39.113637 -123.309570 336 10545ft 111kts
24-Oct-17 17:41 39.142360 -123.325041 333 10545ft 111kts
24-Oct-17 17:42 39.170381 -123.342096 333 10545ft 111kts
24-Oct-17 17:43 39.198580 -123.358694 333 10545ft 111kts
24-Oct-17 17:44 39.226869 -123.375332 334 10545ft 111kts
24-Oct-17 17:45 39.255259 -123.391303 334 10546ft 111kts
24-Oct-17 17:46 39.283379 -123.408073 332 10546ft 111kts
24-Oct-17 17:47 39.311755 -123.424433 335 10547ft 111kts
24-Oct-17 17:48 39.339909 -123.441003 332 10547ft 111kts
24-Oct-17 17:49 39.368235 -123.457494 334 10547ft 111kts
24-Oct-17 17:50 39.396437 -123.473955 333 10548ft 111kts
24-Oct-17 17:51 39.424644 -123.490531 333 10549ft 111kts
24-Oct-17 17:52 39.453012 -123.506997 332 10549ft 111kts
24-Oct-17 17:53 39.481162 -123.523751 333 10550ft 111kts
24-Oct-17 17:54 39.509438 -123.540109 332 10551ft 111kts
24-Oct-17 17:55 39.537647 -123.556987 333 10553ft 111kts
24-Oct-17 17:56 39.565781 -123.573531 333 10553ft 111kts
24-Oct-17 17:57 39.593902 -123.590005 334 10553ft 111kts
24-Oct-17 17:58 39.622080 -123.606468 334 10554ft 111kts
24-Oct-17 17:59 39.650110 -123.623114 333 10555ft 110kts
24-Oct-17 18:00 39.678231 -123.639744 333 10557ft 111kts
24-Oct-17 18:01 39.706291 -123.656165 333 10559ft 111kts
24-Oct-17 18:02 39.734265 -123.672941 333 10560ft 110kts
24-Oct-17 18:03 39.762482 -123.689387 334 10561ft 111kts
24-Oct-17 18:04 39.790472 -123.706141 333 10563ft 110kts
24-Oct-17 18:05 39.818584 -123.722654 334 10564ft 110kts
24-Oct-17 18:06 39.846662 -123.739431 332 10566ft 110kts
24-Oct-17 18:07 39.874624 -123.756150 334 10568ft 110kts
24-Oct-17 18:08 39.902911 -123.772452 333 10570ft 110kts
24-Oct-17 18:09 39.930846 -123.789364 333 10571ft 111kts
24-Oct-17 18:10 39.958953 -123.805862 332 10574ft 111kts
24-Oct-17 18:11 39.986884 -123.823078 332 10576ft 110kts
24-Oct-17 18:12 40.015021 -123.839499 333 10577ft 110kts
24-Oct-17 18:13 40.042967 -123.856378 332 10579ft 110kts
24-Oct-17 18:14 40.071081 -123.873160 333 10581ft 110kts
24-Oct-17 18:15 40.100342 -123.890107 333 10423ft 115kts
24-Oct-17 18:16 40.130331 -123.908259 333 10177ft 118kts
24-Oct-17 18:17 40.160640 -123.926270 331 9929ft 120kts
24-Oct-17 18:18 40.190913 -123.950359 326 8859ft 128kts
24-Oct-17 18:19 40.218952 -123.972347 329 8204ft 110kts
24-Oct-17 18:20 40.244065 -123.991523 327 7795ft 107kts
24-Oct-17 18:21 40.269565 -124.011340 328 7403ft 106kts
24-Oct-17 18:22 40.295113 -124.030886 328 7022ft 105kts
24-Oct-17 18:23 40.320354 -124.050546 328 6660ft 105kts
24-Oct-17 18:24 40.345563 -124.069958 328 6308ft 105kts
24-Oct-17 18:25 40.370763 -124.089312 328 5963ft 104kts
24-Oct-17 18:26 40.395626 -124.108815 328 5627ft 104kts
24-Oct-17 18:27 40.419844 -124.127455 328 5307ft 103kts
24-Oct-17 18:28 40.444582 -124.146632 328 4979ft 102kts
24-Oct-17 18:29 40.469143 -124.165592 328 4652ft 102kts
24-Oct-17 18:30 40.493469 -124.184720 329 4321ft 101kts
24-Oct-17 18:31 40.517662 -124.203509 328 3992ft 100kts
24-Oct-17 18:32 40.541916 -124.221692 336 3652ft 100kts
24-Oct-17 18:33 40.569277 -124.228967 0 2746ft 100kts
24-Oct-17 18:34 40.583721 -124.203368 98 1728ft 91kts
24-Oct-17 18:35 40.573119 -124.176157 123 1138ft 84kts
24-Oct-17 18:36 40.563755 -124.150376 121 707ft 78kts
24-Oct-17 18:37 40.554243 -124.133142 124 358ft 15kts
24-Oct-17 18:38 40.554785 -124.131865 110 358ft 0kts
24-Oct-17 18:39 40.554785 -124.131865 110 358ft 0kts
24-Oct-17 18:40 40.554785 -124.131865 110 358ft 0kts
24-Oct-17 18:41 40.554785 -124.131865 110 358ft 0kts

Navigation Log

Ident Type
Flight plan parsing failed, navigation log unavailable